sensor_id;sensor_type;location;lat;lon;timestamp;temperature;humidity
12315;DHT22;23886;46.614;14.276;2023-05-29T00:01:15;14.00;99.90
12315;DHT22;23886;46.614;14.276;2023-05-29T00:03:44;14.00;99.90
12315;DHT22;23886;46.614;14.276;2023-05-29T00:06:11;14.00;99.90
12315;DHT22;23886;46.614;14.276;2023-05-29T00:08:38;14.00;99.90
12315;DHT22;23886;46.614;14.276;2023-05-29T00:11:05;13.80;99.90
12315;DHT22;23886;46.614;14.276;2023-05-29T00:13:32;13.90;99.90
12315;DHT22;23886;46.614;14.276;2023-05-29T00:15:59;13.70;99.90
12315;DHT22;23886;46.614;14.276;2023-05-29T00:18:30;13.70;99.90
12315;DHT22;23886;46.614;14.276;2023-05-29T00:20:57;13.90;99.90
12315;DHT22;23886;46.614;14.276;2023-05-29T00:23:24;13.80;99.90
12315;DHT22;23886;46.614;14.276;2023-05-29T00:25:51;13.80;99.90
12315;DHT22;23886;46.614;14.276;2023-05-29T00:28:18;13.80;99.90
12315;DHT22;23886;46.614;14.276;2023-05-29T00:30:45;13.80;99.90
12315;DHT22;23886;46.614;14.276;2023-05-29T00:33:12;13.90;99.90
12315;DHT22;23886;46.614;14.276;2023-05-29T00:35:40;13.70;99.90
12315;DHT22;23886;46.614;14.276;2023-05-29T00:38:07;13.70;99.90
12315;DHT22;23886;46.614;14.276;2023-05-29T00:40:34;13.60;99.90
12315;DHT22;23886;46.614;14.276;2023-05-29T00:43:01;13.60;99.90
12315;DHT22;23886;46.614;14.276;2023-05-29T00:45:29;13.50;99.90
12315;DHT22;23886;46.614;14.276;2023-05-29T00:47:57;13.60;99.90
12315;DHT22;23886;46.614;14.276;2023-05-29T00:50:24;13.60;99.90
12315;DHT22;23886;46.614;14.276;2023-05-29T00:52:54;13.60;99.90
12315;DHT22;23886;46.614;14.276;2023-05-29T00:55:21;13.60;99.90
12315;DHT22;23886;46.614;14.276;2023-05-29T00:57:48;13.60;99.90
12315;DHT22;23886;46.614;14.276;2023-05-29T01:00:16;13.70;99.90
12315;DHT22;23886;46.614;14.276;2023-05-29T01:02:44;13.60;99.90
12315;DHT22;23886;46.614;14.276;2023-05-29T01:05:11;13.60;99.90
12315;DHT22;23886;46.614;14.276;2023-05-29T01:07:39;13.70;99.90
12315;DHT22;23886;46.614;14.276;2023-05-29T01:10:08;13.50;99.90
12315;DHT22;23886;46.614;14.276;2023-05-29T01:12:40;13.50;99.90
12315;DHT22;23886;46.614;14.276;2023-05-29T01:15:17;13.50;99.90
12315;DHT22;23886;46.614;14.276;2023-05-29T01:18:00;13.70;99.90
12315;DHT22;23886;46.614;14.276;2023-05-29T01:20:34;13.70;99.90
12315;DHT22;23886;46.614;14.276;2023-05-29T01:23:12;13.50;99.90
12315;DHT22;23886;46.614;14.276;2023-05-29T01:25:58;13.40;99.90
12315;DHT22;23886;46.614;14.276;2023-05-29T01:28:33;13.30;99.90
12315;DHT22;23886;46.614;14.276;2023-05-29T01:31:04;13.30;99.90
12315;DHT22;23886;46.614;14.276;2023-05-29T01:33:33;13.30;99.90
12315;DHT22;23886;46.614;14.276;2023-05-29T01:36:00;13.30;99.90
12315;DHT22;23886;46.614;14.276;2023-05-29T01:38:27;13.30;99.90
12315;DHT22;23886;46.614;14.276;2023-05-29T01:40:54;13.20;99.90
12315;DHT22;23886;46.614;14.276;2023-05-29T01:43:21;13.30;99.90
12315;DHT22;23886;46.614;14.276;2023-05-29T01:45:49;13.30;99.90
12315;DHT22;23886;46.614;14.276;2023-05-29T01:48:17;13.40;99.90
12315;DHT22;23886;46.614;14.276;2023-05-29T01:50:45;13.50;99.90
12315;DHT22;23886;46.614;14.276;2023-05-29T01:53:13;13.60;99.90
12315;DHT22;23886;46.614;14.276;2023-05-29T01:55:40;13.60;99.90
12315;DHT22;23886;46.614;14.276;2023-05-29T01:58:07;13.60;99.90
12315;DHT22;23886;46.614;14.276;2023-05-29T02:00:35;13.60;99.90
12315;DHT22;23886;46.614;14.276;2023-05-29T02:03:04;13.50;99.90
12315;DHT22;23886;46.614;14.276;2023-05-29T02:05:31;13.60;99.90
12315;DHT22;23886;46.614;14.276;2023-05-29T02:07:58;13.60;99.90
12315;DHT22;23886;46.614;14.276;2023-05-29T02:10:25;13.60;99.90
12315;DHT22;23886;46.614;14.276;2023-05-29T02:12:52;13.60;99.90
12315;DHT22;23886;46.614;14.276;2023-05-29T02:15:19;13.60;99.90
12315;DHT22;23886;46.614;14.276;2023-05-29T02:17:46;13.60;99.90
12315;DHT22;23886;46.614;14.276;2023-05-29T02:20:16;13.60;99.90
12315;DHT22;23886;46.614;14.276;2023-05-29T02:22:43;13.60;99.90
12315;DHT22;23886;46.614;14.276;2023-05-29T02:25:11;13.60;99.90
12315;DHT22;23886;46.614;14.276;2023-05-29T02:27:38;13.60;99.90
12315;DHT22;23886;46.614;14.276;2023-05-29T02:30:06;13.60;99.90
12315;DHT22;23886;46.614;14.276;2023-05-29T02:32:34;13.60;99.90
12315;DHT22;23886;46.614;14.276;2023-05-29T02:35:01;13.50;99.90
12315;DHT22;23886;46.614;14.276;2023-05-29T02:37:29;13.50;99.90
12315;DHT22;23886;46.614;14.276;2023-05-29T02:39:56;13.60;99.90
12315;DHT22;23886;46.614;14.276;2023-05-29T02:42:23;13.60;99.90
12315;DHT22;23886;46.614;14.276;2023-05-29T02:44:50;13.60;99.90
12315;DHT22;23886;46.614;14.276;2023-05-29T02:47:17;13.40;99.90
12315;DHT22;23886;46.614;14.276;2023-05-29T02:49:44;13.40;99.90
12315;DHT22;23886;46.614;14.276;2023-05-29T02:52:11;13.50;99.90
12315;DHT22;23886;46.614;14.276;2023-05-29T02:54:39;13.50;99.90
12315;DHT22;23886;46.614;14.276;2023-05-29T02:57:06;13.60;99.90
12315;DHT22;23886;46.614;14.276;2023-05-29T02:59:33;13.70;99.90
12315;DHT22;23886;46.614;14.276;2023-05-29T03:02:01;13.70;99.90
12315;DHT22;23886;46.614;14.276;2023-05-29T03:04:27;13.60;99.90
12315;DHT22;23886;46.614;14.276;2023-05-29T03:06:54;13.50;99.90
12315;DHT22;23886;46.614;14.276;2023-05-29T03:09:21;13.50;99.90
12315;DHT22;23886;46.614;14.276;2023-05-29T03:11:50;13.40;99.90
12315;DHT22;23886;46.614;14.276;2023-05-29T03:14:17;13.50;99.90
12315;DHT22;23886;46.614;14.276;2023-05-29T03:16:47;13.50;99.90
12315;DHT22;23886;46.614;14.276;2023-05-29T03:19:14;13.50;99.90
12315;DHT22;23886;46.614;14.276;2023-05-29T03:21:42;13.40;99.90
12315;DHT22;23886;46.614;14.276;2023-05-29T03:24:09;13.40;99.90
12315;DHT22;23886;46.614;14.276;2023-05-29T03:26:36;13.40;99.90
12315;DHT22;23886;46.614;14.276;2023-05-29T03:29:05;13.50;99.90
12315;DHT22;23886;46.614;14.276;2023-05-29T03:31:32;13.50;99.90
12315;DHT22;23886;46.614;14.276;2023-05-29T03:34:00;13.50;99.90
12315;DHT22;23886;46.614;14.276;2023-05-29T03:36:27;13.50;99.90
12315;DHT22;23886;46.614;14.276;2023-05-29T03:38:54;13.60;99.90
12315;DHT22;23886;46.614;14.276;2023-05-29T03:41:21;13.50;99.90
12315;DHT22;23886;46.614;14.276;2023-05-29T03:43:48;13.50;99.90
12315;DHT22;23886;46.614;14.276;2023-05-29T03:46:17;13.60;99.90
12315;DHT22;23886;46.614;14.276;2023-05-29T03:48:43;13.60;99.90
12315;DHT22;23886;46.614;14.276;2023-05-29T03:51:11;13.60;99.90
12315;DHT22;23886;46.614;14.276;2023-05-29T03:53:37;13.60;99.90
12315;DHT22;23886;46.614;14.276;2023-05-29T03:56:05;13.60;99.90
12315;DHT22;23886;46.614;14.276;2023-05-29T03:58:32;13.60;99.90
12315;DHT22;23886;46.614;14.276;2023-05-29T04:00:59;13.50;99.90
12315;DHT22;23886;46.614;14.276;2023-05-29T04:03:29;13.60;99.90
12315;DHT22;23886;46.614;14.276;2023-05-29T04:05:56;13.60;99.90
12315;DHT22;23886;46.614;14.276;2023-05-29T04:08:23;13.60;99.90
12315;DHT22;23886;46.614;14.276;2023-05-29T04:10:51;13.70;99.90
12315;DHT22;23886;46.614;14.276;2023-05-29T04:13:19;13.80;99.90
12315;DHT22;23886;46.614;14.276;2023-05-29T04:15:46;13.80;99.90
12315;DHT22;23886;46.614;14.276;2023-05-29T04:18:13;13.80;99.90
12315;DHT22;23886;46.614;14.276;2023-05-29T04:20:41;13.80;99.90
12315;DHT22;23886;46.614;14.276;2023-05-29T04:23:11;13.80;99.90
12315;DHT22;23886;46.614;14.276;2023-05-29T04:25:38;13.80;99.90
12315;DHT22;23886;46.614;14.276;2023-05-29T04:28:05;13.80;99.90
12315;DHT22;23886;46.614;14.276;2023-05-29T04:30:32;13.90;99.90
12315;DHT22;23886;46.614;14.276;2023-05-29T04:32:59;13.90;99.90
12315;DHT22;23886;46.614;14.276;2023-05-29T04:35:26;13.90;99.90
12315;DHT22;23886;46.614;14.276;2023-05-29T04:37:55;13.90;99.90
12315;DHT22;23886;46.614;14.276;2023-05-29T04:40:23;13.90;99.90
12315;DHT22;23886;46.614;14.276;2023-05-29T04:42:50;13.90;99.90
12315;DHT22;23886;46.614;14.276;2023-05-29T04:45:19;14.00;99.90
12315;DHT22;23886;46.614;14.276;2023-05-29T04:47:47;14.10;99.90
12315;DHT22;23886;46.614;14.276;2023-05-29T04:50:16;14.20;99.90
12315;DHT22;23886;46.614;14.276;2023-05-29T04:52:43;14.30;99.90
12315;DHT22;23886;46.614;14.276;2023-05-29T04:55:12;14.50;99.90
12315;DHT22;23886;46.614;14.276;2023-05-29T04:57:39;14.60;99.90
12315;DHT22;23886;46.614;14.276;2023-05-29T05:00:07;14.70;99.90
12315;DHT22;23886;46.614;14.276;2023-05-29T05:02:41;14.80;99.90
12315;DHT22;23886;46.614;14.276;2023-05-29T05:05:08;14.80;99.90
12315;DHT22;23886;46.614;14.276;2023-05-29T05:07:35;14.90;99.90
12315;DHT22;23886;46.614;14.276;2023-05-29T05:10:02;14.90;99.90
12315;DHT22;23886;46.614;14.276;2023-05-29T05:12:30;14.90;99.90
12315;DHT22;23886;46.614;14.276;2023-05-29T05:14:57;14.90;99.90
12315;DHT22;23886;46.614;14.276;2023-05-29T05:17:24;15.00;99.90
12315;DHT22;23886;46.614;14.276;2023-05-29T05:19:53;15.00;99.90
12315;DHT22;23886;46.614;14.276;2023-05-29T05:22:20;15.00;99.90
12315;DHT22;23886;46.614;14.276;2023-05-29T05:24:47;15.00;99.90
12315;DHT22;23886;46.614;14.276;2023-05-29T05:27:14;15.10;99.90
12315;DHT22;23886;46.614;14.276;2023-05-29T05:29:42;15.20;99.90
12315;DHT22;23886;46.614;14.276;2023-05-29T05:32:09;15.20;99.90
12315;DHT22;23886;46.614;14.276;2023-05-29T05:34:36;15.40;99.90
12315;DHT22;23886;46.614;14.276;2023-05-29T05:37:04;15.50;99.90
12315;DHT22;23886;46.614;14.276;2023-05-29T05:39:31;15.60;99.90
12315;DHT22;23886;46.614;14.276;2023-05-29T05:41:57;15.60;99.90
12315;DHT22;23886;46.614;14.276;2023-05-29T05:44:25;15.70;99.90
12315;DHT22;23886;46.614;14.276;2023-05-29T05:46:53;15.70;99.90
12315;DHT22;23886;46.614;14.276;2023-05-29T05:49:20;15.80;99.90
12315;DHT22;23886;46.614;14.276;2023-05-29T05:51:47;16.10;99.90
12315;DHT22;23886;46.614;14.276;2023-05-29T05:54:14;16.10;99.90
12315;DHT22;23886;46.614;14.276;2023-05-29T05:56:41;16.10;99.90
12315;DHT22;23886;46.614;14.276;2023-05-29T05:59:08;16.20;99.90
12315;DHT22;23886;46.614;14.276;2023-05-29T06:01:35;16.40;99.90
12315;DHT22;23886;46.614;14.276;2023-05-29T06:04:05;16.40;99.90
12315;DHT22;23886;46.614;14.276;2023-05-29T06:06:32;16.40;99.90
12315;DHT22;23886;46.614;14.276;2023-05-29T06:08:59;16.40;99.90
12315;DHT22;23886;46.614;14.276;2023-05-29T06:11:26;16.50;99.90
12315;DHT22;23886;46.614;14.276;2023-05-29T06:13:53;16.70;99.90
12315;DHT22;23886;46.614;14.276;2023-05-29T06:16:20;16.70;99.90
12315;DHT22;23886;46.614;14.276;2023-05-29T06:18:47;16.70;99.90
12315;DHT22;23886;46.614;14.276;2023-05-29T06:21:15;16.70;99.90
12315;DHT22;23886;46.614;14.276;2023-05-29T06:23:43;16.90;99.90
12315;DHT22;23886;46.614;14.276;2023-05-29T06:26:10;17.00;99.90
12315;DHT22;23886;46.614;14.276;2023-05-29T06:28:38;17.00;99.90
12315;DHT22;23886;46.614;14.276;2023-05-29T06:31:05;17.00;99.90
12315;DHT22;23886;46.614;14.276;2023-05-29T06:33:32;16.90;99.90
12315;DHT22;23886;46.614;14.276;2023-05-29T06:35:59;16.90;99.90
12315;DHT22;23886;46.614;14.276;2023-05-29T06:38:27;17.00;99.90
12315;DHT22;23886;46.614;14.276;2023-05-29T06:40:54;17.10;99.90
12315;DHT22;23886;46.614;14.276;2023-05-29T06:43:21;17.30;99.90
12315;DHT22;23886;46.614;14.276;2023-05-29T06:45:48;17.40;99.90
12315;DHT22;23886;46.614;14.276;2023-05-29T06:48:15;17.60;99.90
12315;DHT22;23886;46.614;14.276;2023-05-29T06:50:42;17.60;99.90
12315;DHT22;23886;46.614;14.276;2023-05-29T06:53:09;17.60;99.90
12315;DHT22;23886;46.614;14.276;2023-05-29T06:55:38;17.70;99.90
12315;DHT22;23886;46.614;14.276;2023-05-29T06:58:06;17.80;99.90
12315;DHT22;23886;46.614;14.276;2023-05-29T07:00:33;17.90;99.90
12315;DHT22;23886;46.614;14.276;2023-05-29T07:03:00;18.00;99.90
12315;DHT22;23886;46.614;14.276;2023-05-29T07:05:27;17.90;99.90
12315;DHT22;23886;46.614;14.276;2023-05-29T07:07:54;18.10;99.90
12315;DHT22;23886;46.614;14.276;2023-05-29T07:10:21;18.00;99.90
12315;DHT22;23886;46.614;14.276;2023-05-29T07:12:49;18.10;99.90
12315;DHT22;23886;46.614;14.276;2023-05-29T07:15:17;18.20;99.90
12315;DHT22;23886;46.614;14.276;2023-05-29T07:17:43;18.40;99.90
12315;DHT22;23886;46.614;14.276;2023-05-29T07:20:11;18.70;99.90
12315;DHT22;23886;46.614;14.276;2023-05-29T07:22:40;18.60;99.90
12315;DHT22;23886;46.614;14.276;2023-05-29T07:25:08;18.70;99.90
12315;DHT22;23886;46.614;14.276;2023-05-29T07:27:35;18.80;99.90
12315;DHT22;23886;46.614;14.276;2023-05-29T07:30:04;19.00;99.90
12315;DHT22;23886;46.614;14.276;2023-05-29T07:32:32;19.00;99.90
12315;DHT22;23886;46.614;14.276;2023-05-29T07:35:00;19.10;99.90
12315;DHT22;23886;46.614;14.276;2023-05-29T07:37:27;19.20;99.90
12315;DHT22;23886;46.614;14.276;2023-05-29T07:39:55;19.20;99.90
12315;DHT22;23886;46.614;14.276;2023-05-29T07:42:22;19.20;99.90
12315;DHT22;23886;46.614;14.276;2023-05-29T07:44:49;19.20;99.90
12315;DHT22;23886;46.614;14.276;2023-05-29T07:47:17;19.40;99.90
12315;DHT22;23886;46.614;14.276;2023-05-29T07:49:44;19.70;99.90
12315;DHT22;23886;46.614;14.276;2023-05-29T07:52:11;19.70;99.90
12315;DHT22;23886;46.614;14.276;2023-05-29T07:54:38;19.90;99.90
12315;DHT22;23886;46.614;14.276;2023-05-29T07:57:06;19.90;99.90
12315;DHT22;23886;46.614;14.276;2023-05-29T07:59:35;20.10;99.90
12315;DHT22;23886;46.614;14.276;2023-05-29T08:02:02;19.90;99.90
12315;DHT22;23886;46.614;14.276;2023-05-29T08:04:31;19.90;99.90
12315;DHT22;23886;46.614;14.276;2023-05-29T08:06:58;20.20;99.90
12315;DHT22;23886;46.614;14.276;2023-05-29T08:09:26;20.40;99.90
12315;DHT22;23886;46.614;14.276;2023-05-29T08:11:53;20.50;99.90
12315;DHT22;23886;46.614;14.276;2023-05-29T08:14:21;20.30;98.90
12315;DHT22;23886;46.614;14.276;2023-05-29T08:16:48;20.20;99.90
12315;DHT22;23886;46.614;14.276;2023-05-29T08:19:15;20.30;99.60
12315;DHT22;23886;46.614;14.276;2023-05-29T08:21:43;20.40;99.70
12315;DHT22;23886;46.614;14.276;2023-05-29T08:24:10;20.50;99.40
12315;DHT22;23886;46.614;14.276;2023-05-29T08:26:38;20.60;98.80
12315;DHT22;23886;46.614;14.276;2023-05-29T08:29:05;20.70;98.70
12315;DHT22;23886;46.614;14.276;2023-05-29T08:31:32;20.90;97.90
12315;DHT22;23886;46.614;14.276;2023-05-29T08:33:59;20.70;97.60
12315;DHT22;23886;46.614;14.276;2023-05-29T08:36:26;20.90;99.20
12315;DHT22;23886;46.614;14.276;2023-05-29T08:38:54;21.00;98.50
12315;DHT22;23886;46.614;14.276;2023-05-29T08:41:31;21.10;98.70
12315;DHT22;23886;46.614;14.276;2023-05-29T08:44:03;21.20;97.60
12315;DHT22;23886;46.614;14.276;2023-05-29T08:46:31;21.50;96.00
12315;DHT22;23886;46.614;14.276;2023-05-29T08:48:58;21.70;96.30
12315;DHT22;23886;46.614;14.276;2023-05-29T08:51:31;21.80;96.00
12315;DHT22;23886;46.614;14.276;2023-05-29T08:54:01;21.60;95.70
12315;DHT22;23886;46.614;14.276;2023-05-29T08:56:29;21.70;96.20
12315;DHT22;23886;46.614;14.276;2023-05-29T08:58:57;21.80;95.10
12315;DHT22;23886;46.614;14.276;2023-05-29T09:01:25;21.60;95.80
12315;DHT22;23886;46.614;14.276;2023-05-29T09:03:52;21.80;97.00
12315;DHT22;23886;46.614;14.276;2023-05-29T09:06:19;21.70;95.90
12315;DHT22;23886;46.614;14.276;2023-05-29T09:08:47;21.80;94.80
12315;DHT22;23886;46.614;14.276;2023-05-29T09:11:15;21.40;93.90
12315;DHT22;23886;46.614;14.276;2023-05-29T09:13:42;21.60;95.30
12315;DHT22;23886;46.614;14.276;2023-05-29T09:16:09;21.60;95.00
12315;DHT22;23886;46.614;14.276;2023-05-29T09:18:36;22.00;95.30
12315;DHT22;23886;46.614;14.276;2023-05-29T09:21:07;22.30;94.90
12315;DHT22;23886;46.614;14.276;2023-05-29T09:23:35;22.10;93.20
12315;DHT22;23886;46.614;14.276;2023-05-29T09:26:03;22.10;93.40
12315;DHT22;23886;46.614;14.276;2023-05-29T09:28:31;22.30;93.10
12315;DHT22;23886;46.614;14.276;2023-05-29T09:30:58;22.40;93.00
12315;DHT22;23886;46.614;14.276;2023-05-29T09:33:26;22.50;93.20
12315;DHT22;23886;46.614;14.276;2023-05-29T09:35:53;22.50;93.70
12315;DHT22;23886;46.614;14.276;2023-05-29T09:38:20;22.70;93.70
12315;DHT22;23886;46.614;14.276;2023-05-29T09:40:47;22.60;93.40
12315;DHT22;23886;46.614;14.276;2023-05-29T09:43:15;22.90;92.70
12315;DHT22;23886;46.614;14.276;2023-05-29T09:45:46;23.00;93.40
12315;DHT22;23886;46.614;14.276;2023-05-29T09:48:15;23.20;93.50
12315;DHT22;23886;46.614;14.276;2023-05-29T09:50:42;23.30;92.80
12315;DHT22;23886;46.614;14.276;2023-05-29T09:53:21;23.00;91.80
12315;DHT22;23886;46.614;14.276;2023-05-29T09:55:50;22.90;92.80
12315;DHT22;23886;46.614;14.276;2023-05-29T09:58:18;23.00;92.10
12315;DHT22;23886;46.614;14.276;2023-05-29T10:00:47;23.20;91.90
12315;DHT22;23886;46.614;14.276;2023-05-29T10:03:14;23.30;92.90
12315;DHT22;23886;46.614;14.276;2023-05-29T10:05:43;23.20;92.10
12315;DHT22;23886;46.614;14.276;2023-05-29T10:08:12;23.30;91.50
12315;DHT22;23886;46.614;14.276;2023-05-29T10:10:42;23.50;90.70
12315;DHT22;23886;46.614;14.276;2023-05-29T10:13:11;23.50;91.70
12315;DHT22;23886;46.614;14.276;2023-05-29T10:15:40;23.40;92.30
12315;DHT22;23886;46.614;14.276;2023-05-29T10:18:13;23.60;91.80
12315;DHT22;23886;46.614;14.276;2023-05-29T10:20:41;23.50;93.00
12315;DHT22;23886;46.614;14.276;2023-05-29T10:23:09;23.70;91.50
12315;DHT22;23886;46.614;14.276;2023-05-29T10:25:39;23.90;90.30
12315;DHT22;23886;46.614;14.276;2023-05-29T10:28:08;24.10;88.50
12315;DHT22;23886;46.614;14.276;2023-05-29T10:30:39;24.00;88.50
12315;DHT22;23886;46.614;14.276;2023-05-29T10:33:28;24.20;91.00
12315;DHT22;23886;46.614;14.276;2023-05-29T10:36:06;24.30;85.40
12315;DHT22;23886;46.614;14.276;2023-05-29T10:38:34;24.20;87.30
12315;DHT22;23886;46.614;14.276;2023-05-29T10:41:35;24.30;88.60
12315;DHT22;23886;46.614;14.276;2023-05-29T10:44:38;24.40;86.90
12315;DHT22;23886;46.614;14.276;2023-05-29T10:47:07;24.60;88.20
12315;DHT22;23886;46.614;14.276;2023-05-29T10:49:39;24.50;84.60
12315;DHT22;23886;46.614;14.276;2023-05-29T10:52:06;24.60;85.30
12315;DHT22;23886;46.614;14.276;2023-05-29T10:54:51;24.50;86.40
12315;DHT22;23886;46.614;14.276;2023-05-29T10:57:21;24.50;90.10
12315;DHT22;23886;46.614;14.276;2023-05-29T10:59:58;24.70;86.50
12315;DHT22;23886;46.614;14.276;2023-05-29T11:02:25;24.80;86.00
12315;DHT22;23886;46.614;14.276;2023-05-29T11:05:18;24.70;87.10
12315;DHT22;23886;46.614;14.276;2023-05-29T11:07:53;24.70;88.40
12315;DHT22;23886;46.614;14.276;2023-05-29T11:10:42;24.80;87.90
12315;DHT22;23886;46.614;14.276;2023-05-29T11:13:12;25.50;87.30
12315;DHT22;23886;46.614;14.276;2023-05-29T11:16:13;25.40;83.90
12315;DHT22;23886;46.614;14.276;2023-05-29T11:18:41;25.30;84.70
12315;DHT22;23886;46.614;14.276;2023-05-29T11:21:27;25.10;86.20
12315;DHT22;23886;46.614;14.276;2023-05-29T11:23:57;25.30;85.60
12315;DHT22;23886;46.614;14.276;2023-05-29T11:26:26;25.50;83.20
12315;DHT22;23886;46.614;14.276;2023-05-29T11:28:57;25.60;84.90
12315;DHT22;23886;46.614;14.276;2023-05-29T11:31:25;25.90;84.20
12315;DHT22;23886;46.614;14.276;2023-05-29T11:33:54;25.90;83.20
12315;DHT22;23886;46.614;14.276;2023-05-29T11:36:27;25.90;82.60
12315;DHT22;23886;46.614;14.276;2023-05-29T11:38:54;26.00;84.50
12315;DHT22;23886;46.614;14.276;2023-05-29T11:41:21;26.50;81.80
12315;DHT22;23886;46.614;14.276;2023-05-29T11:44:06;27.20;79.00
12315;DHT22;23886;46.614;14.276;2023-05-29T11:46:34;27.60;77.00
12315;DHT22;23886;46.614;14.276;2023-05-29T11:49:02;28.00;77.80
12315;DHT22;23886;46.614;14.276;2023-05-29T11:51:30;27.90;75.20
12315;DHT22;23886;46.614;14.276;2023-05-29T11:53:57;27.50;78.10
12315;DHT22;23886;46.614;14.276;2023-05-29T11:56:25;26.70;78.60
12315;DHT22;23886;46.614;14.276;2023-05-29T11:58:52;27.50;77.90
12315;DHT22;23886;46.614;14.276;2023-05-29T12:01:22;28.40;75.10
12315;DHT22;23886;46.614;14.276;2023-05-29T12:03:50;28.60;75.20
12315;DHT22;23886;46.614;14.276;2023-05-29T12:06:32;29.30;75.40
12315;DHT22;23886;46.614;14.276;2023-05-29T12:09:00;29.40;72.50
12315;DHT22;23886;46.614;14.276;2023-05-29T12:11:28;29.30;72.30
12315;DHT22;23886;46.614;14.276;2023-05-29T12:13:56;29.40;69.90
12315;DHT22;23886;46.614;14.276;2023-05-29T12:16:24;29.30;71.70
12315;DHT22;23886;46.614;14.276;2023-05-29T12:18:51;28.60;72.30
12315;DHT22;23886;46.614;14.276;2023-05-29T12:21:23;27.90;74.30
12315;DHT22;23886;46.614;14.276;2023-05-29T12:23:59;28.00;73.20
12315;DHT22;23886;46.614;14.276;2023-05-29T12:26:26;26.90;74.60
12315;DHT22;23886;46.614;14.276;2023-05-29T12:28:54;26.40;76.90
12315;DHT22;23886;46.614;14.276;2023-05-29T12:31:27;26.10;78.30
12315;DHT22;23886;46.614;14.276;2023-05-29T12:33:59;25.90;77.40
12315;DHT22;23886;46.614;14.276;2023-05-29T12:36:27;25.90;78.40
12315;DHT22;23886;46.614;14.276;2023-05-29T12:38:54;25.60;80.70
12315;DHT22;23886;46.614;14.276;2023-05-29T12:41:28;25.70;78.00
12315;DHT22;23886;46.614;14.276;2023-05-29T12:43:56;26.70;79.10
12315;DHT22;23886;46.614;14.276;2023-05-29T12:46:24;26.60;77.20
12315;DHT22;23886;46.614;14.276;2023-05-29T12:48:53;26.80;75.50
12315;DHT22;23886;46.614;14.276;2023-05-29T12:51:24;26.20;76.20
12315;DHT22;23886;46.614;14.276;2023-05-29T12:53:51;25.80;77.50
12315;DHT22;23886;46.614;14.276;2023-05-29T12:56:21;25.30;83.30
12315;DHT22;23886;46.614;14.276;2023-05-29T12:58:50;25.70;79.20
12315;DHT22;23886;46.614;14.276;2023-05-29T13:01:18;26.10;78.90
12315;DHT22;23886;46.614;14.276;2023-05-29T13:03:46;26.80;77.80
12315;DHT22;23886;46.614;14.276;2023-05-29T13:06:13;26.70;77.80
12315;DHT22;23886;46.614;14.276;2023-05-29T13:08:40;26.30;77.00
12315;DHT22;23886;46.614;14.276;2023-05-29T13:11:07;25.90;77.40
12315;DHT22;23886;46.614;14.276;2023-05-29T13:13:34;26.20;78.00
12315;DHT22;23886;46.614;14.276;2023-05-29T13:16:02;26.20;75.30
12315;DHT22;23886;46.614;14.276;2023-05-29T13:18:30;25.80;76.00
12315;DHT22;23886;46.614;14.276;2023-05-29T13:20:57;25.90;77.90
12315;DHT22;23886;46.614;14.276;2023-05-29T13:23:24;25.90;73.60
12315;DHT22;23886;46.614;14.276;2023-05-29T13:25:51;25.90;71.90
12315;DHT22;23886;46.614;14.276;2023-05-29T13:28:18;25.60;82.20
12315;DHT22;23886;46.614;14.276;2023-05-29T13:30:45;25.00;80.00
12315;DHT22;23886;46.614;14.276;2023-05-29T13:33:13;25.20;76.50
12315;DHT22;23886;46.614;14.276;2023-05-29T13:35:40;25.80;73.60
12315;DHT22;23886;46.614;14.276;2023-05-29T13:38:07;25.90;68.90
12315;DHT22;23886;46.614;14.276;2023-05-29T13:40:34;25.80;68.50
12315;DHT22;23886;46.614;14.276;2023-05-29T13:43:01;25.40;69.50
12315;DHT22;23886;46.614;14.276;2023-05-29T13:45:28;25.90;69.80
12315;DHT22;23886;46.614;14.276;2023-05-29T13:47:56;26.20;70.30
12315;DHT22;23886;46.614;14.276;2023-05-29T13:50:24;26.40;70.70
12315;DHT22;23886;46.614;14.276;2023-05-29T13:52:52;25.90;71.60
12315;DHT22;23886;46.614;14.276;2023-05-29T13:55:19;26.50;75.20
12315;DHT22;23886;46.614;14.276;2023-05-29T13:57:46;26.60;70.20
12315;DHT22;23886;46.614;14.276;2023-05-29T14:00:14;26.90;70.50
12315;DHT22;23886;46.614;14.276;2023-05-29T14:02:41;27.10;75.10
12315;DHT22;23886;46.614;14.276;2023-05-29T14:05:09;26.60;71.30
12315;DHT22;23886;46.614;14.276;2023-05-29T14:07:38;27.10;74.10
12315;DHT22;23886;46.614;14.276;2023-05-29T14:10:06;27.50;68.60
12315;DHT22;23886;46.614;14.276;2023-05-29T14:12:33;27.30;69.00
12315;DHT22;23886;46.614;14.276;2023-05-29T14:15:00;27.60;69.10
12315;DHT22;23886;46.614;14.276;2023-05-29T14:17:27;28.10;68.90
12315;DHT22;23886;46.614;14.276;2023-05-29T14:19:54;28.90;69.30
12315;DHT22;23886;46.614;14.276;2023-05-29T14:22:21;29.10;67.50
12315;DHT22;23886;46.614;14.276;2023-05-29T14:24:50;29.80;68.10
12315;DHT22;23886;46.614;14.276;2023-05-29T14:27:17;30.70;65.60
12315;DHT22;23886;46.614;14.276;2023-05-29T14:29:44;31.90;61.60
12315;DHT22;23886;46.614;14.276;2023-05-29T14:32:11;31.60;58.00
12315;DHT22;23886;46.614;14.276;2023-05-29T14:34:38;31.70;60.90
12315;DHT22;23886;46.614;14.276;2023-05-29T14:37:05;31.30;59.20
12315;DHT22;23886;46.614;14.276;2023-05-29T14:39:33;31.20;59.40
12315;DHT22;23886;46.614;14.276;2023-05-29T14:42:01;31.00;60.20
12315;DHT22;23886;46.614;14.276;2023-05-29T14:44:28;30.30;59.90
12315;DHT22;23886;46.614;14.276;2023-05-29T14:46:55;30.90;60.80
12315;DHT22;23886;46.614;14.276;2023-05-29T14:49:22;30.60;59.60
12315;DHT22;23886;46.614;14.276;2023-05-29T14:51:51;30.40;59.70
12315;DHT22;23886;46.614;14.276;2023-05-29T14:54:18;31.10;61.50
12315;DHT22;23886;46.614;14.276;2023-05-29T14:56:45;31.50;61.00
12315;DHT22;23886;46.614;14.276;2023-05-29T14:59:13;30.90;61.20
12315;DHT22;23886;46.614;14.276;2023-05-29T15:01:40;29.80;63.70
12315;DHT22;23886;46.614;14.276;2023-05-29T15:04:07;30.90;62.90
12315;DHT22;23886;46.614;14.276;2023-05-29T15:06:34;31.50;57.70
12315;DHT22;23886;46.614;14.276;2023-05-29T15:09:01;30.70;58.50
12315;DHT22;23886;46.614;14.276;2023-05-29T15:11:29;29.80;59.70
12315;DHT22;23886;46.614;14.276;2023-05-29T15:13:56;29.00;60.60
12315;DHT22;23886;46.614;14.276;2023-05-29T15:16:25;28.20;71.90
12315;DHT22;23886;46.614;14.276;2023-05-29T15:18:52;27.30;70.60
12315;DHT22;23886;46.614;14.276;2023-05-29T15:21:19;27.00;66.20
12315;DHT22;23886;46.614;14.276;2023-05-29T15:23:47;26.80;71.80